Time;durP1;ratioP1;P1;durP2;ratioP2;P2;SDS_P1;SDS_P2;PMS_P1;PMS_P2;Temp;Humidity;BMP_temperature;BMP_pressure;BME280_temperature;BME280_humidity;BME280_pressure;Samples;Min_cycle;Max_cycle;Signal;HPM_P1;HPM_P2
2023/10/06 00:01:49;;;;;;;0.20;0.20;;;;;;;13.91;94.39;95256.84;5133749;27;20212;-76
2023/10/06 00:04:17;;;;;;;27.85;0.88;;;;;;;13.87;94.29;95253.97;5133447;27;20205;-76
2023/10/06 00:06:45;;;;;;;0.20;0.20;;;;;;;13.71;94.90;95258.44;5133142;27;20221;-76
2023/10/06 00:09:21;;;;;;;0.40;0.40;;;;;;;13.79;94.36;95256.78;5133401;27;20291;-76
2023/10/06 00:11:50;;;;;;;6.53;1.92;;;;;;;13.81;94.63;95257.22;5123170;27;20312;-76
2023/10/06 00:14:38;;;;;;;0.43;0.30;;;;;;;13.77;96.71;95242.69;5133208;27;20254;-75
2023/10/06 00:17:12;;;;;;;3.88;2.10;;;;;;;13.78;98.37;95244.28;5126418;27;20192;-76
2023/10/06 00:19:41;;;;;;;2.70;1.92;;;;;;;13.93;98.41;95238.25;5131531;27;20200;-76
2023/10/06 00:22:17;;;;;;;1.00;0.50;;;;;;;13.99;98.03;95234.16;5133283;27;20229;-76
2023/10/06 00:24:47;;;;;;;2.45;1.95;;;;;;;14.07;97.41;95236.03;5132238;27;20292;-76
2023/10/06 00:27:18;;;;;;;0.82;0.63;;;;;;;13.99;97.47;95239.63;5132682;27;20193;-76
2023/10/06 00:29:47;;;;;;;5.22;2.50;;;;;;;14.01;98.02;95237.38;5132979;27;20196;-75
2023/10/06 00:32:25;;;;;;;3.92;2.53;;;;;;;13.97;96.96;95233.69;5128699;27;20271;-76
2023/10/06 00:34:54;;;;;;;0.25;0.25;;;;;;;13.97;97.29;95236.44;5129320;27;20215;-76
2023/10/06 00:37:22;;;;;;;0.30;0.30;;;;;;;13.95;96.92;95235.97;5119103;27;20204;-75
2023/10/06 00:39:53;;;;;;;2.17;0.57;;;;;;;13.96;96.08;95234.84;5132696;27;20211;-76
2023/10/06 00:42:26;;;;;;;0.75;0.75;;;;;;;13.94;95.03;95234.38;5133233;27;20196;-76
2023/10/06 00:44:54;;;;;;;0.30;0.30;;;;;;;13.91;94.83;95237.78;5132075;27;20232;-76
2023/10/06 00:47:21;;;;;;;1.23;1.13;;;;;;;13.83;94.92;95241.34;5133139;27;20224;-76
2023/10/06 00:49:48;;;;;;;0.75;0.45;;;;;;;13.79;95.39;95243.97;5132181;27;20296;-76
2023/10/06 00:52:15;;;;;;;0.20;0.20;;;;;;;13.82;94.93;95239.75;5127782;27;20220;-76
2023/10/06 00:54:44;;;;;;;0.55;0.55;;;;;;;13.81;94.35;95238.16;5132388;27;20451;-76
2023/10/06 00:57:18;;;;;;;1.15;1.05;;;;;;;13.78;94.18;95238.84;5132904;27;20688;-76
2023/10/06 00:59:44;;;;;;;0.20;0.20;;;;;;;13.76;94.35;95241.09;5132564;27;20299;-76
2023/10/06 01:02:11;;;;;;;1.45;0.88;;;;;;;13.66;94.20;95253.19;5132720;27;20280;-76
2023/10/06 01:04:44;;;;;;;1.55;0.77;;;;;;;13.61;93.91;95249.88;5128402;27;20557;-76
2023/10/06 01:07:12;;;;;;;0.52;0.47;;;;;;;13.60;94.64;95240.09;5132743;27;20723;-76
2023/10/06 01:09:39;;;;;;;0.40;0.40;;;;;;;13.55;95.17;95251.16;5132009;27;20201;-76
2023/10/06 01:12:11;;;;;;;1.85;0.73;;;;;;;13.55;95.58;95238.34;5132146;27;20212;-76
2023/10/06 01:14:40;;;;;;;0.50;0.50;;;;;;;13.54;95.45;95234.03;5123704;27;20225;-76
2023/10/06 01:17:14;;;;;;;0.20;0.20;;;;;;;13.57;95.79;95232.59;5132408;27;20197;-76
2023/10/06 01:19:48;;;;;;;0.50;0.50;;;;;;;13.57;95.12;95238.84;5121406;27;20208;-76
2023/10/06 01:22:24;;;;;;;0.75;0.47;;;;;;;13.59;95.65;95241.22;5120417;27;20205;-76
2023/10/06 01:24:53;;;;;;;0.40;0.40;;;;;;;13.56;96.27;95231.00;5131936;27;20229;-76
2023/10/06 01:27:25;;;;;;;0.15;0.15;;;;;;;13.63;96.52;95225.84;5132345;27;20243;-76
2023/10/06 01:30:08;;;;;;;1.50;1.00;;;;;;;13.60;95.78;95223.75;5119802;27;20194;-76
2023/10/06 01:32:35;;;;;;;2.45;1.10;;;;;;;13.56;97.29;95231.78;5111649;28;20620;-76
2023/10/06 01:35:02;;;;;;;0.43;0.43;;;;;;;13.66;96.95;95233.34;5126232;27;20641;-76
2023/10/06 01:37:31;;;;;;;0.20;0.20;;;;;;;13.58;97.23;95239.63;5124192;27;20201;-76
2023/10/06 01:40:07;;;;;;;1.27;0.77;;;;;;;13.66;96.45;95245.03;5116152;27;20205;-76
2023/10/06 01:42:35;;;;;;;0.88;0.88;;;;;;;13.61;97.33;95249.88;5131971;27;20231;-76
2023/10/06 01:45:13;;;;;;;0.45;0.45;;;;;;;13.72;95.68;95254.59;5115218;27;20621;-76
2023/10/06 01:47:40;;;;;;;0.30;0.30;;;;;;;13.80;94.91;95253.72;5122641;27;20205;-75
2023/10/06 01:50:08;;;;;;;0.50;0.50;;;;;;;13.87;94.34;95250.47;5122046;27;20208;-76
2023/10/06 01:52:39;;;;;;;0.43;0.43;;;;;;;13.96;93.81;95245.72;5131963;27;20232;-75
2023/10/06 01:55:18;;;;;;;0.20;0.20;;;;;;;14.03;93.72;95246.00;5127328;27;20251;-75
2023/10/06 01:57:47;;;;;;;0.45;0.45;;;;;;;14.07;93.48;95252.38;5124781;27;20222;-75
2023/10/06 02:00:21;;;;;;;0.30;0.30;;;;;;;14.10;92.79;95262.59;5118828;27;20691;-76
2023/10/06 02:02:50;;;;;;;1.05;0.95;;;;;;;14.06;92.70;95264.41;5127359;27;20268;-75
2023/10/06 02:05:17;;;;;;;0.17;0.17;;;;;;;14.04;92.89;95260.44;5128752;27;20216;-75
2023/10/06 02:07:45;;;;;;;0.32;0.32;;;;;;;14.15;92.49;95259.69;5117901;27;20554;-75
2023/10/06 02:10:15;;;;;;;1.25;0.82;;;;;;;14.16;92.65;95264.00;5131247;27;20225;-76
2023/10/06 02:12:42;;;;;;;1.17;0.88;;;;;;;14.20;92.45;95267.66;5121212;27;20232;-75
2023/10/06 02:15:11;;;;;;;0.98;0.95;;;;;;;14.26;92.17;95259.25;5121435;27;20219;-75
2023/10/06 02:17:40;;;;;;;0.30;0.30;;;;;;;14.26;92.03;95251.06;5117339;27;20576;-75
2023/10/06 02:20:12;;;;;;;0.47;0.47;;;;;;;14.18;92.23;95269.91;5126389;27;20205;-75
2023/10/06 02:22:39;;;;;;;2.55;1.10;;;;;;;14.21;92.11;95263.78;5126551;27;20265;-75
2023/10/06 02:25:15;;;;;;;0.30;0.30;;;;;;;14.26;91.92;95261.97;5131300;28;20209;-75
2023/10/06 02:27:47;;;;;;;0.30;0.30;;;;;;;14.28;92.24;95268.69;5118093;28;20196;-74
2023/10/06 02:30:15;;;;;;;0.20;0.20;;;;;;;14.28;92.18;95270.63;5117119;28;20201;-75
2023/10/06 02:32:43;;;;;;;0.30;0.25;;;;;;;14.28;92.14;95278.78;5127491;28;20197;-75
2023/10/06 02:35:10;;;;;;;2.95;1.05;;;;;;;14.26;92.30;95270.16;5116787;28;20213;-76
2023/10/06 02:37:37;;;;;;;6.72;1.05;;;;;;;14.19;92.50;95273.44;5130737;28;20212;-76
2023/10/06 02:40:11;;;;;;;0.55;0.55;;;;;;;14.25;92.44;95280.25;5130785;28;20208;-76
2023/10/06 02:42:44;;;;;;;1.20;0.80;;;;;;;14.22;93.00;95276.25;5125544;28;20605;-76
2023/10/06 02:45:16;;;;;;;0.77;0.77;;;;;;;14.28;92.42;95282.31;5126291;27;20225;-76
2023/10/06 02:47:43;;;;;;;0.20;0.20;;;;;;;14.28;92.29;95284.25;5123334;27;20269;-76
2023/10/06 02:50:19;;;;;;;1.27;0.77;;;;;;;14.16;92.71;95282.28;5134835;27;20553;-76
2023/10/06 02:52:46;;;;;;;0.10;0.10;;;;;;;14.11;92.72;95288.72;5132824;27;20200;-76
2023/10/06 02:55:19;;;;;;;0.30;0.20;;;;;;;14.16;93.03;95274.91;5133862;27;20217;-76
2023/10/06 02:57:51;;;;;;;0.30;0.30;;;;;;;14.30;92.22;95271.88;5132140;27;20229;-76
2023/10/06 03:00:32;;;;;;;0.30;0.30;;;;;;;14.41;91.57;95266.84;5132401;27;20229;-76
2023/10/06 03:03:03;;;;;;;0.60;0.60;;;;;;;14.42;91.44;95271.16;5127954;27;20224;-76
2023/10/06 03:05:32;;;;;;;0.25;0.25;;;;;;;14.38;91.37;95278.38;5126110;27;20216;-76
2023/10/06 03:08:00;;;;;;;0.40;0.40;;;;;;;14.39;91.20;95269.06;5128688;27;20581;-76
2023/10/06 03:10:31;;;;;;;0.20;0.20;;;;;;;14.35;91.29;95266.22;5127396;27;20217;-76
2023/10/06 03:13:00;;;;;;;0.20;0.20;;;;;;;14.34;91.58;95272.81;5127563;27;20610;-76
2023/10/06 03:15:35;;;;;;;0.63;0.63;;;;;;;14.44;91.22;95271.63;5134577;27;20611;-76
2023/10/06 03:18:03;;;;;;;0.40;0.40;;;;;;;14.45;91.42;95267.75;5134470;27;20215;-76
2023/10/06 03:20:40;;;;;;;0.20;0.20;;;;;;;14.47;91.22;95276.41;5120913;27;20857;-76
2023/10/06 03:23:24;;;;;;;0.30;0.30;;;;;;;14.56;91.11;95268.94;5131698;27;20211;-76
2023/10/06 03:25:53;;;;;;;0.50;0.50;;;;;;;14.61;90.81;95276.91;5133226;27;20261;-76
2023/10/06 03:28:24;;;;;;;0.90;0.70;;;;;;;14.53;90.34;95269.59;5134383;27;20201;-76
2023/10/06 03:30:52;;;;;;;0.43;0.43;;;;;;;14.50;90.74;95270.25;5124768;27;20201;-76
2023/10/06 03:33:20;;;;;;;2.85;0.60;;;;;;;14.55;90.46;95272.78;5134245;27;20250;-76
2023/10/06 03:35:48;;;;;;;0.40;0.40;;;;;;;14.41;91.19;95264.09;5133726;27;20197;-75
2023/10/06 03:41:09;;;;;;;0.40;0.38;;;;;;;14.28;91.40;95273.34;5121249;27;20198;-74
2023/10/06 03:43:40;;;;;;;0.50;0.50;;;;;;;14.24;91.18;95268.56;5129617;27;20902;-76
2023/10/06 03:46:09;;;;;;;0.20;0.20;;;;;;;14.26;91.15;95281.06;5124582;27;20586;-75
2023/10/06 03:48:38;;;;;;;0.20;0.20;;;;;;;14.26;90.65;95281.06;5127374;27;20205;-76
2023/10/06 03:51:05;;;;;;;0.43;0.43;;;;;;;14.35;90.13;95274.38;5123733;27;20197;-75
2023/10/06 03:53:33;;;;;;;0.50;0.50;;;;;;;14.40;89.31;95270.69;5132431;27;20259;-75
2023/10/06 03:56:00;;;;;;;0.40;0.40;;;;;;;14.52;87.92;95268.00;5131750;27;20201;-75
2023/10/06 03:58:28;;;;;;;0.20;0.20;;;;;;;14.69;87.09;95277.94;5129554;27;20201;-75
2023/10/06 04:00:58;;;;;;;0.45;0.30;;;;;;;14.65;87.07;95272.34;5129760;27;20230;-76
2023/10/06 04:03:24;;;;;;;0.20;0.20;;;;;;;14.59;87.10;95268.25;5131407;27;20212;-77
2023/10/06 04:05:55;;;;;;;1.08;0.30;;;;;;;14.64;86.45;95270.75;5131975;27;20205;-77
2023/10/06 04:08:22;;;;;;;0.17;0.17;;;;;;;14.61;86.51;95265.19;5130299;27;20200;-75
2023/10/06 04:10:53;;;;;;;0.20;0.20;;;;;;;14.65;86.25;95260.66;5117264;27;20271;-76
2023/10/06 04:13:20;;;;;;;0.20;0.20;;;;;;;14.71;86.11;95259.31;5112120;28;20223;-75
2023/10/06 04:15:50;;;;;;;0.75;0.52;;;;;;;14.77;85.40;95252.47;5113119;28;20779;-76
2023/10/06 04:18:22;;;;;;;0.30;0.30;;;;;;;14.81;84.95;95265.13;5113168;28;20246;-75
2023/10/06 04:20:49;;;;;;;0.40;0.30;;;;;;;14.80;85.15;95258.06;5112857;28;20342;-75
2023/10/06 04:23:17;;;;;;;0.20;0.20;;;;;;;14.88;84.63;95270.81;5113111;28;20250;-75
2023/10/06 04:25:45;;;;;;;0.25;0.25;;;;;;;14.93;84.38;95269.78;5112961;28;20678;-75
2023/10/06 04:28:15;;;;;;;0.50;0.50;;;;;;;14.99;83.87;95270.38;5112911;28;20212;-76
2023/10/06 04:30:43;;;;;;;0.25;0.25;;;;;;;15.05;83.49;95274.47;5113144;28;20212;-75
2023/10/06 04:33:11;;;;;;;0.57;0.57;;;;;;;15.17;82.55;95277.22;5112671;28;20201;-76
2023/10/06 04:35:42;;;;;;;0.20;0.20;;;;;;;15.12;82.71;95283.69;5112772;28;20570;-75
2023/10/06 04:38:10;;;;;;;0.13;0.13;;;;;;;15.13;82.61;95279.84;5126409;27;20529;-76
2023/10/06 04:40:37;;;;;;;0.38;0.38;;;;;;;15.12;82.62;95280.16;5133489;27;20197;-76
2023/10/06 04:43:04;;;;;;;0.50;0.50;;;;;;;15.08;82.92;95281.97;5132562;27;20226;-76
2023/10/06 04:45:31;;;;;;;0.13;0.13;;;;;;;15.15;82.56;95293.94;5112371;28;20225;-76
2023/10/06 04:48:00;;;;;;;0.10;0.10;;;;;;;15.17;82.42;95294.38;5126653;27;20201;-75
2023/10/06 04:50:28;;;;;;;0.30;0.30;;;;;;;15.18;82.66;95297.91;5133576;27;20292;-75
2023/10/06 04:52:56;;;;;;;0.40;0.40;;;;;;;15.27;82.21;95298.59;5131130;27;20255;-76
2023/10/06 04:55:23;;;;;;;0.77;0.73;;;;;;;15.36;82.03;95307.47;5121643;27;20248;-75
2023/10/06 04:57:50;;;;;;;0.32;0.32;;;;;;;15.40;81.95;95302.94;5132747;27;20205;-76
2023/10/06 05:00:20;;;;;;;0.50;0.50;;;;;;;15.33;82.04;95308.16;5132756;27;20209;-75
2023/10/06 05:02:47;;;;;;;0.60;0.60;;;;;;;15.34;81.86;95317.13;5132390;27;20854;-76
2023/10/06 05:05:19;;;;;;;0.50;0.43;;;;;;;15.31;81.71;95315.88;5132822;27;20213;-75
2023/10/06 05:07:46;;;;;;;1.55;1.17;;;;;;;15.37;82.15;95324.66;5132812;27;20201;-75
2023/10/06 05:10:16;;;;;;;1.17;0.80;;;;;;;15.42;82.06;95317.03;5132315;27;20221;-77
2023/10/06 05:12:44;;;;;;;0.10;0.10;;;;;;;15.46;81.92;95323.38;5132072;27;20209;-75
2023/10/06 05:15:17;;;;;;;0.50;0.50;;;;;;;15.53;81.79;95318.16;5132555;27;20239;-74
2023/10/06 05:17:44;;;;;;;0.20;0.20;;;;;;;15.66;81.48;95329.13;5132262;27;20208;-75
2023/10/06 05:20:19;;;;;;;0.32;0.32;;;;;;;15.77;80.90;95324.78;5132555;27;20612;-75
2023/10/06 05:22:48;;;;;;;0.70;0.70;;;;;;;15.92;80.04;95324.88;5132055;27;20207;-76
2023/10/06 05:25:19;;;;;;;0.10;0.10;;;;;;;16.02;79.60;95322.81;5132325;27;20210;-76
2023/10/06 05:27:47;;;;;;;0.20;0.20;;;;;;;15.89;80.01;95327.50;5132030;27;20212;-76
2023/10/06 05:30:14;;;;;;;0.20;0.20;;;;;;;16.16;79.31;95337.69;5132402;27;20285;-76
2023/10/06 05:32:42;;;;;;;0.40;0.35;;;;;;;16.33;78.62;95340.16;5131993;27;20204;-77
2023/10/06 05:35:13;;;;;;;0.13;0.13;;;;;;;16.59;77.60;95336.19;5131553;27;20656;-75
2023/10/06 05:37:44;;;;;;;0.57;0.57;;;;;;;16.72;76.85;95334.22;5131997;27;20201;-76
2023/10/06 05:40:20;;;;;;;0.30;0.30;;;;;;;16.96;76.12;95334.91;5132239;27;20196;-76
2023/10/06 05:42:51;;;;;;;0.70;0.60;;;;;;;16.88;76.02;95335.88;5128013;27;20225;-76
2023/10/06 05:45:20;;;;;;;0.30;0.30;;;;;;;16.91;75.96;95332.44;5112933;27;20378;-76
2023/10/06 05:47:50;;;;;;;0.47;0.47;;;;;;;16.89;75.89;95344.88;5111113;28;20214;-76
2023/10/06 05:50:26;;;;;;;0.25;0.25;;;;;;;16.86;75.47;95329.94;5111521;28;20623;-75
2023/10/06 05:52:58;;;;;;;0.52;0.52;;;;;;;17.09;74.92;95343.03;5111483;28;20228;-76
2023/10/06 05:55:31;;;;;;;0.17;0.17;;;;;;;17.14;74.71;95351.00;5111715;28;20299;-77
2023/10/06 05:58:00;;;;;;;0.60;0.60;;;;;;;17.01;74.98;95353.00;5113307;27;20297;-76
2023/10/06 06:00:30;;;;;;;1.02;0.82;;;;;;;17.27;73.96;95352.50;5132075;27;20630;-77
2023/10/06 06:02:59;;;;;;;1.45;1.33;;;;;;;17.75;72.32;95354.16;5131807;27;20205;-77
2023/10/06 06:05:29;;;;;;;0.35;0.35;;;;;;;17.91;71.30;95359.59;5131276;27;20288;-78
2023/10/06 06:07:59;;;;;;;0.57;0.57;;;;;;;17.77;71.21;95351.06;5113796;27;20243;-76
2023/10/06 06:10:28;;;;;;;0.20;0.20;;;;;;;18.08;70.55;95351.78;5111264;28;20229;-77
2023/10/06 06:12:58;;;;;;;0.20;0.20;;;;;;;18.26;69.87;95354.91;5110793;28;20205;-76
2023/10/06 06:15:27;;;;;;;0.85;0.85;;;;;;;18.30;69.66;95361.28;5111444;28;20229;-76
2023/10/06 06:17:54;;;;;;;0.63;0.43;;;;;;;18.03;70.48;95364.97;5111083;28;20326;-76
2023/10/06 06:20:22;;;;;;;0.50;0.50;;;;;;;17.72;71.09;95344.69;5110998;28;20585;-76
2023/10/06 06:22:55;;;;;;;0.73;0.40;;;;;;;18.01;70.89;95364.53;5110496;28;20204;-76
2023/10/06 06:25:21;;;;;;;0.40;0.38;;;;;;;18.42;69.93;95366.66;5124941;28;20197;-77
2023/10/06 06:27:48;;;;;;;1.13;1.08;;;;;;;19.03;67.68;95363.19;5124462;28;20213;-76
2023/10/06 06:30:18;;;;;;;0.43;0.43;;;;;;;19.56;65.71;95357.88;5124831;28;20213;-77
2023/10/06 06:32:48;;;;;;;0.30;0.30;;;;;;;19.48;64.85;95356.16;5118907;28;20295;-76
2023/10/06 06:35:16;;;;;;;1.83;0.70;;;;;;;20.05;64.31;95365.38;5128721;28;20593;-77
2023/10/06 06:37:43;;;;;;;0.20;0.20;;;;;;;20.04;63.50;95363.78;5120627;28;20211;-77
2023/10/06 06:40:13;;;;;;;2.58;0.88;;;;;;;19.62;65.01;95367.44;5131589;28;20257;-76
2023/10/06 06:42:40;;;;;;;0.47;0.45;;;;;;;20.16;63.52;95374.56;5126780;28;20212;-77
2023/10/06 06:45:08;;;;;;;1.05;0.95;;;;;;;20.63;62.33;95373.31;5113274;28;20681;-75
2023/10/06 06:47:36;;;;;;;1.08;0.80;;;;;;;20.64;62.07;95372.13;5122208;28;20212;-75
2023/10/06 06:50:06;;;;;;;0.45;0.45;;;;;;;20.18;63.12;95383.25;5131310;28;20201;-76
2023/10/06 06:52:34;;;;;;;3.33;1.65;;;;;;;19.33;65.48;95395.53;5120079;28;20205;-76
2023/10/06 06:55:01;;;;;;;3.03;1.52;;;;;;;19.30;66.15;95394.31;5129497;28;20231;-75
2023/10/06 06:57:28;;;;;;;0.95;0.65;;;;;;;19.33;66.61;95393.59;5131538;28;20213;-76
2023/10/06 06:59:55;;;;;;;0.80;0.52;;;;;;;19.64;65.47;95394.56;5131245;28;20223;-76
2023/10/06 07:02:22;;;;;;;0.50;0.50;;;;;;;18.76;67.75;95397.16;5126330;28;20208;-85
2023/10/06 07:04:49;;;;;;;0.20;0.20;;;;;;;18.47;69.29;95402.00;5129805;28;20209;-78
2023/10/06 07:07:17;;;;;;;0.32;0.32;;;;;;;18.44;69.48;95404.69;5130876;28;20209;-79
2023/10/06 07:09:44;;;;;;;0.45;0.45;;;;;;;18.57;69.11;95400.69;5130519;28;20205;-79
2023/10/06 07:12:12;;;;;;;0.50;0.50;;;;;;;18.76;68.49;95402.66;5131119;28;20201;-80
2023/10/06 07:14:39;;;;;;;1.80;1.50;;;;;;;18.30;70.09;95396.94;5130700;28;20285;-76
2023/10/06 07:17:06;;;;;;;4.18;2.13;;;;;;;18.24;70.38;95403.84;5112339;28;20227;-82
2023/10/06 07:19:33;;;;;;;0.43;0.43;;;;;;;18.37;69.60;95397.09;5130994;28;20213;-79
2023/10/06 07:22:00;;;;;;;0.40;0.40;;;;;;;18.65;68.64;95396.94;5116952;27;20210;-74
2023/10/06 07:24:28;;;;;;;0.17;0.17;;;;;;;18.74;69.30;95400.25;5110332;28;20217;-75
2023/10/06 07:26:56;;;;;;;0.20;0.20;;;;;;;19.20;67.50;95399.59;5110377;28;20210;-74
2023/10/06 07:29:23;;;;;;;3.58;1.83;;;;;;;19.57;66.29;95386.97;5131147;28;20201;-75
2023/10/06 07:31:50;;;;;;;2.22;1.55;;;;;;;20.05;65.13;95382.66;5117229;28;20217;-75
2023/10/06 07:34:16;;;;;;;2.63;1.50;;;;;;;19.99;64.85;95389.63;5132422;27;20212;-75
2023/10/06 07:36:43;;;;;;;1.77;1.15;;;;;;;19.30;66.11;95388.00;5133930;27;20232;-75
2023/10/06 07:39:20;;;;;;;0.68;0.68;;;;;;;19.09;66.65;95389.22;5134494;27;20618;-74
2023/10/06 07:41:48;;;;;;;0.68;0.63;;;;;;;19.50;66.38;95390.41;5134270;27;20299;-76
2023/10/06 07:44:15;;;;;;;5.15;2.50;;;;;;;19.56;65.62;95382.63;5124342;27;20617;-75
2023/10/06 07:46:42;;;;;;;1.70;1.40;;;;;;;19.69;65.42;95388.72;5113474;28;20282;-75
2023/10/06 07:49:09;;;;;;;1.60;0.75;;;;;;;19.76;65.52;95388.88;5113218;28;20241;-75
2023/10/06 07:51:36;;;;;;;1.40;0.88;;;;;;;20.31;63.49;95381.88;5131336;27;20300;-75
2023/10/06 07:54:03;;;;;;;0.55;0.55;;;;;;;20.43;62.62;95372.63;5134383;27;20205;-75
2023/10/06 07:56:30;;;;;;;1.50;0.75;;;;;;;20.42;62.66;95377.34;5134088;27;20745;-75
2023/10/06 07:58:58;;;;;;;0.82;0.82;;;;;;;20.20;63.08;95369.91;5134329;27;20577;-75
2023/10/06 08:01:25;;;;;;;2.10;1.10;;;;;;;20.38;63.07;95370.19;5134344;27;20628;-75
2023/10/06 08:03:53;;;;;;;2.72;2.28;;;;;;;20.35;62.68;95371.72;5133739;27;20253;-75
2023/10/06 08:06:22;;;;;;;0.57;0.57;;;;;;;19.99;64.53;95384.13;5133684;27;20209;-74
2023/10/06 08:08:49;;;;;;;0.32;0.32;;;;;;;19.46;65.42;95377.72;5133777;27;20213;-76
2023/10/06 08:11:16;;;;;;;0.95;0.95;;;;;;;19.68;65.17;95376.94;5133730;27;20231;-75
2023/10/06 08:13:42;;;;;;;1.63;1.10;;;;;;;19.38;65.68;95381.50;5133628;27;20615;-74
2023/10/06 08:16:12;;;;;;;0.40;0.40;;;;;;;19.50;66.01;95373.91;5133926;27;20229;-75
2023/10/06 08:18:39;;;;;;;0.50;0.50;;;;;;;19.63;64.83;95371.75;5134275;27;20205;-74
2023/10/06 08:21:06;;;;;;;0.20;0.20;;;;;;;19.35;65.86;95384.97;5128119;27;20270;-75
2023/10/06 08:23:35;;;;;;;1.48;1.10;;;;;;;19.28;65.56;95379.34;5125916;27;20641;-76
2023/10/06 08:26:07;;;;;;;2.97;0.93;;;;;;;19.35;66.03;95379.47;5133096;27;20226;-75
2023/10/06 08:28:34;;;;;;;0.90;0.52;;;;;;;19.34;65.78;95386.13;5133976;27;20228;-75
2023/10/06 08:31:02;;;;;;;0.17;0.17;;;;;;;19.41;65.15;95372.50;5126617;27;20646;-75
2023/10/06 08:33:31;;;;;;;2.88;2.00;;;;;;;19.33;65.70;95379.03;5127007;27;20211;-75
2023/10/06 08:36:00;;;;;;;0.50;0.43;;;;;;;20.05;64.78;95376.38;5133483;27;20225;-74
2023/10/06 08:38:28;;;;;;;3.30;1.75;;;;;;;20.19;63.42;95374.63;5133720;27;20539;-75
2023/10/06 08:40:58;;;;;;;2.88;1.70;;;;;;;19.57;64.60;95380.66;5133464;27;20278;-76
2023/10/06 08:43:27;;;;;;;0.30;0.30;;;;;;;19.11;65.99;95386.91;5129837;27;20202;-74
2023/10/06 08:45:59;;;;;;;0.55;0.55;;;;;;;19.09;66.26;95386.47;5111549;28;20264;-75
2023/10/06 08:48:32;;;;;;;3.13;1.58;;;;;;;19.33;65.95;95381.78;5112835;28;20566;-75
2023/10/06 08:51:03;;;;;;;3.13;1.98;;;;;;;19.88;64.45;95375.72;5112736;28;20251;-75
2023/10/06 08:53:32;;;;;;;0.80;0.80;;;;;;;20.12;62.99;95373.72;5132145;27;20249;-76
2023/10/06 08:55:59;;;;;;;0.55;0.55;;;;;;;20.33;62.28;95373.25;5132840;27;20262;-75
2023/10/06 08:58:26;;;;;;;0.90;0.90;;;;;;;20.04;62.73;95369.28;5133345;27;20211;-76
2023/10/06 09:00:55;;;;;;;0.77;0.77;;;;;;;19.34;64.25;95384.19;5133114;27;20564;-75
2023/10/06 09:03:22;;;;;;;0.30;0.30;;;;;;;19.18;65.36;95381.53;5132866;27;20572;-76
2023/10/06 09:05:51;;;;;;;1.38;0.75;;;;;;;19.62;64.46;95378.41;5133007;27;20204;-76
2023/10/06 09:08:18;;;;;;;5.13;2.05;;;;;;;20.02;63.68;95368.84;5125711;27;20270;-76
2023/10/06 09:10:50;;;;;;;0.45;0.45;;;;;;;20.11;61.96;95372.91;5126845;27;20232;-75
2023/10/06 09:13:19;;;;;;;0.65;0.52;;;;;;;20.16;62.04;95369.84;5124368;27;20198;-77
2023/10/06 09:15:59;;;;;;;1.95;1.48;;;;;;;20.60;60.23;95371.28;5127660;27;20224;-75
2023/10/06 09:18:27;;;;;;;0.57;0.57;;;;;;;20.49;60.67;95366.44;5133064;27;20558;-76
2023/10/06 09:20:57;;;;;;;1.85;1.40;;;;;;;20.83;60.38;95367.25;5132460;27;20296;-75
2023/10/06 09:23:31;;;;;;;0.93;0.57;;;;;;;21.58;58.56;95362.59;5121011;27;20570;-77
2023/10/06 09:25:58;;;;;;;4.82;1.90;;;;;;;20.89;59.54;95362.22;5131709;27;20196;-76
2023/10/06 09:28:26;;;;;;;1.40;1.30;;;;;;;21.48;58.48;95360.50;5120044;27;20569;-75
2023/10/06 09:30:57;;;;;;;3.45;1.92;;;;;;;21.59;57.74;95367.69;5132436;27;20555;-76
2023/10/06 09:33:26;;;;;;;4.05;2.10;;;;;;;21.33;58.17;95353.25;5132299;27;20309;-75
2023/10/06 09:36:17;;;;;;;2.42;1.08;;;;;;;20.99;59.24;95361.53;5132407;27;20293;-76
2023/10/06 09:38:44;;;;;;;3.40;1.80;;;;;;;20.90;59.09;95359.09;5132621;27;20242;-75
2023/10/06 09:41:12;;;;;;;1.60;1.10;;;;;;;21.18;58.46;95364.09;5132627;27;20565;-75
2023/10/06 09:43:40;;;;;;;0.55;0.45;;;;;;;21.52;58.03;95350.31;5126598;27;20212;-75
2023/10/06 09:46:08;;;;;;;0.63;0.63;;;;;;;21.12;58.08;95360.13;5111402;28;20238;-75
2023/10/06 09:48:38;;;;;;;1.48;1.00;;;;;;;21.33;57.96;95350.50;5111734;28;20559;-75
2023/10/06 09:51:08;;;;;;;1.33;0.80;;;;;;;21.51;57.78;95348.72;5111709;28;20224;-74
2023/10/06 09:53:38;;;;;;;1.80;1.50;;;;;;;21.12;57.51;95348.31;5111638;28;20549;-75
2023/10/06 09:56:07;;;;;;;0.50;0.50;;;;;;;20.85;58.61;95353.13;5111191;28;20353;-75
2023/10/06 09:58:35;;;;;;;0.50;0.50;;;;;;;20.88;58.56;95355.91;5111161;28;20237;-76
2023/10/06 10:01:04;;;;;;;3.30;0.75;;;;;;;20.62;58.74;95357.94;5111181;28;20692;-76
2023/10/06 10:03:33;;;;;;;2.75;1.80;;;;;;;20.62;58.98;95355.19;5111576;28;20521;-74
2023/10/06 10:06:04;;;;;;;3.03;2.05;;;;;;;20.77;58.86;95348.69;5111472;28;20524;-75
2023/10/06 10:08:33;;;;;;;0.40;0.40;;;;;;;20.84;58.60;95348.78;5111585;28;20206;-76
2023/10/06 10:11:05;;;;;;;4.13;1.02;;;;;;;21.17;57.81;95356.25;5128714;27;20649;-75
2023/10/06 10:14:07;;;;;;;0.88;0.88;;;;;;;21.43;56.68;95336.06;5132029;27;20185;-75
2023/10/06 10:19:32;;;;;;;2.75;2.08;;;;;;;21.75;54.93;95339.06;5131505;27;20249;-75
2023/10/06 10:22:03;;;;;;;1.60;1.08;;;;;;;21.58;55.31;95341.31;5131971;27;20235;-74
2023/10/06 10:24:31;;;;;;;1.25;0.45;;;;;;;21.06;56.18;95336.03;5131761;27;20558;-73
2023/10/06 10:26:59;;;;;;;4.10;2.38;;;;;;;20.91;56.50;95337.81;5131094;27;20197;-76
2023/10/06 10:29:30;;;;;;;0.47;0.47;;;;;;;21.03;55.97;95323.81;5105376;28;20284;-75
2023/10/06 10:32:07;;;;;;;0.68;0.68;;;;;;;21.11;56.05;95332.94;5122773;28;20249;-76
2023/10/06 10:34:34;;;;;;;0.17;0.17;;;;;;;20.68;56.04;95309.63;5131785;28;20598;-75
2023/10/06 10:37:17;;;;;;;0.75;0.75;;;;;;;20.98;56.37;95324.13;5117309;28;20235;-76
2023/10/06 10:39:49;;;;;;;2.47;1.90;;;;;;;20.86;56.04;95327.16;5128980;28;20641;-75
2023/10/06 10:42:21;;;;;;;2.35;2.00;;;;;;;21.07;55.74;95323.81;5131367;28;20280;-75
2023/10/06 10:44:49;;;;;;;1.65;1.27;;;;;;;21.00;54.80;95316.28;5117393;28;20245;-76
2023/10/06 10:47:17;;;;;;;0.70;0.70;;;;;;;21.17;54.97;95312.94;5131620;28;20287;-76
2023/10/06 10:49:46;;;;;;;3.80;0.95;;;;;;;21.04;53.28;95306.13;5117704;28;20255;-74
2023/10/06 10:52:13;;;;;;;0.50;0.50;;;;;;;21.07;53.70;95299.03;5112704;28;20209;-75
2023/10/06 10:54:42;;;;;;;4.53;1.95;;;;;;;21.23;53.61;95294.91;5127641;28;20221;-74
2023/10/06 10:57:13;;;;;;;6.18;2.53;;;;;;;20.55;53.76;95296.09;5124884;27;20229;-76
2023/10/06 11:00:20;;;;;;;0.52;0.52;;;;;;;20.51;54.40;95297.22;5129290;27;20212;-75
2023/10/06 11:03:06;;;;;;;0.50;0.50;;;;;;;20.66;54.03;95304.50;5136324;27;20288;-74
2023/10/06 11:05:37;;;;;;;3.17;1.60;;;;;;;20.92;53.34;95300.84;5125189;27;20193;-75
2023/10/06 11:08:06;;;;;;;0.80;0.50;;;;;;;21.19;52.98;95291.31;5127675;27;20649;-75
2023/10/06 11:10:33;;;;;;;1.83;1.40;;;;;;;21.85;51.28;95284.00;5134767;27;20271;-75
2023/10/06 11:13:15;;;;;;;6.05;2.33;;;;;;;21.69;49.69;95283.50;5126803;27;20703;-75
2023/10/06 11:15:43;;;;;;;3.33;2.20;;;;;;;21.11;51.08;95286.88;5131817;27;20274;-75
2023/10/06 11:18:28;;;;;;;1.00;0.82;;;;;;;20.95;51.32;95278.06;5134377;27;20209;-75
2023/10/06 11:20:55;;;;;;;1.50;1.35;;;;;;;20.95;50.53;95278.06;5132426;27;20207;-75
2023/10/06 11:23:23;;;;;;;0.50;0.50;;;;;;;21.25;51.18;95270.50;5132186;27;20208;-75
2023/10/06 11:25:50;;;;;;;3.15;0.80;;;;;;;21.08;50.71;95273.84;5131801;27;20243;-75
2023/10/06 11:28:19;;;;;;;4.10;1.98;;;;;;;21.74;48.58;95268.53;5131670;27;20211;-76
2023/10/06 11:30:48;;;;;;;3.65;1.50;;;;;;;21.38;48.82;95267.47;5130937;27;20207;-75
2023/10/06 11:33:19;;;;;;;4.18;0.82;;;;;;;21.76;48.47;95266.97;5132330;27;20547;-76
2023/10/06 11:35:46;;;;;;;1.48;0.70;;;;;;;22.00;47.46;95273.09;5134287;27;20200;-76
2023/10/06 11:38:15;;;;;;;5.10;1.88;;;;;;;22.32;48.04;95263.00;5115495;27;20279;-75
2023/10/06 11:40:43;;;;;;;5.43;1.48;;;;;;;21.56;47.85;95268.41;5133624;27;20614;-76
2023/10/06 11:43:12;;;;;;;3.28;1.52;;;;;;;21.80;48.43;95273.31;5133403;27;20197;-75
2023/10/06 11:45:41;;;;;;;0.65;0.52;;;;;;;21.83;47.80;95266.25;5134104;27;20329;-75
2023/10/06 11:51:02;;;;;;;0.30;0.30;;;;;;;22.34;46.05;95268.94;5087051;27;20545;-74
2023/10/06 11:53:29;;;;;;;3.22;1.42;;;;;;;21.98;46.52;95263.19;5069739;28;20191;-74
2023/10/06 11:56:07;;;;;;;5.70;3.03;;;;;;;21.69;46.63;95272.47;5076322;28;20267;-77